NEODyS-2

Near Earth Objects - Dynamic Site
NEODyS ∴ Observatories ∴ Site 691 ∴ Obs & residuals
Contact »
691  ▹ 
OBSERVATIONS AND RESIDUALS

691-Steward Observatory, Kitt Peak-Spacewatch

Detections | Residuals | Detections & Residuals

[1-200] [201-400] [401-600] [601-800] [801-1000] [1001-1200] [1201-1400] [1401-1600] [1601-1800] [1801-2000] [2001-2200] [2201-2400] [2401-2600] [2601-2800] [2801-3000] [3001-3200] [3201-3400] [3401-3600] [3601-3800] [3801-4000] [4001-4200] [4201-4400] [4401-4600] [4601-4800] [4801-5000] [5001-5200] [5201-5400] [5401-5600] [5601-5800] [5801-6000] [6001-6200] [6201-6400] [6401-6600] [6601-6800] [6801-7000] [7001-7200] [7201-7400] [7401-7600] [7601-7800] [7801-8000] [8001-8200] [8201-8400] [8401-8600] [8601-8800] [8801-9000] [9001-9200] [9201-9400] [9401-9600] [9601-9800] [9801-10000] [10001-10200] [10201-10400] [10401-10600] [10601-10800] [10801-11000] [11001-11200] [11201-11400] [11401-11600] [11601-11800] [11801-12000] [12001-12200] [12201-12400] [12401-12600] [12601-12800] [12801-13000] [13001-13200] [13201-13400] [13401-13600] [13601-13800] [13801-14000] [14001-14200] [14201-14400] [14401-14600] [14601-14800] [14801-15000] [15001-15200] [15201-15400] [15401-15600] [15601-15800] [15801-16000] [16001-16200] [16201-16400] [16401-16600] [16601-16800] [16801-17000] [17001-17200] [17201-17400] [17401-17600] [17601-17800] [17801-18000] [18001-18200] [18201-18400] [18401-18600] [18601-18800] [18801-19000] [19001-19200] [19201-19400] [19401-19600] [19601-19800] [19801-20000] [20001-20200] [20201-20400] [20401-20600] [20601-20800] [20801-21000] [21001-21200] [21201-21400] [21401-21600] [21601-21800] [21801-22000] [22001-22200] [22201-22400] [22401-22600] [22601-22800] [22801-23000] [23001-23200] [23201-23400] [23401-23600] [23601-23800] [23801-24000] [24001-24200] [24201-24400] [24401-24600] [24601-24800] [24801-25000] [25001-25200] [25201-25400] [25401-25600] [25601-25800] [25801-26000] [26001-26200] [26201-26400] [26401-26600] [26601-26800] [26801-27000] [27001-27200] [27201-27400] [27401-27600] [27601-27800] [27801-28000] [28001-28200] [28201-28400] [28401-28600] [28601-28800] [28801-29000] [29001-29200] [29201-29400] [29401-29600] [29601-29800] [29801-30000] [30001-30200] [30201-30400] [30401-30600] [30601-30800] [30801-31000] [31001-31200] [31201-31400] [31401-31600] [31601-31800] [31801-32000] [32001-32200] [32201-32400] [32401-32600] [32601-32800] [32801-33000] [33001-33200] [33201-33400] [33401-33600] [33601-33800] [33801-34000] [34001-34200] [34201-34400] [34401-34600] [34601-34800] [34801-35000] [35001-35200] [35201-35400] [35401-35600] [35601-35800] [35801-36000] [36001-36200] [36201-36400] [36401-36600] [36601-36800] [36801-37000] [37001-37200] [37201-37400] [37401-37600] [37601-37800] [37801-38000] [38001-38200] [38201-38400] [38401-38600] [38601-38800] [38801-39000] [39001-39200] [39201-39400] [39401-39600] [39601-39800] [39801-40000] [40001-40200] [40201-40400] [40401-40600] [40601-40800] [40801-41000] [41001-41200] [41201-41400] [41401-41600] [41601-41800] [41801-42000] [42001-42200] [42201-42400] [42401-42600] [42601-42800] [42801-43000] [43001-43200] [43201-43400] [43401-43600] [43601-43800] [43801-44000] [44001-44200] [44201-44400] [44401-44600] [44601-44800] [44801-45000] [45001-45200] [45201-45400] [45401-45600] [45601-45800] [45801-46000] [46001-46200] [46201-46400] [46401-46600] [46601-46800] [46801-47000] [47001-47200] [47201-47400] [47401-47600] [47601-47800] [47801-48000] [48001-48200] [48201-48400] [48401-48600] [48601-48800] [48801-49000] [49001-49200] [49201-49400] [49401-49600] [49601-49800] [49801-50000] [50001-50200] [50201-50388]

Designation T Tech N Date Right Ascension Declination Apparent Magnitude Star Catalog Site code χ Used A Used M
yr-mo-day precision hr:min:sec precision rms F bias residual deg min sec precision rms F bias residual mag/col rms residual
2005XL80 O C H 2007-11-14.15796 1.000E-05 03:14:08.160 1.500E-01 0.500 F -0.276 0.627 +17° 05' 49.10" 1.000E-01 0.500 F 0.201 -0.812 o 691 2.05 Yes No
Akka O C 2007-11-14.17296 1.000E-05 03:30:49.840 1.500E-01 0.500 F -0.184 -0.103 +19° 02' 04.60" 1.000E-01 0.500 F 0.254 -0.165 19.3 V 0.70 0.40 o 691 0.39 Yes Yes
2005XL80 O C H 2007-11-14.17558 1.000E-05 03:14:06.260 1.500E-01 0.500 F -0.276 -0.025 +17° 05' 48.30" 1.000E-01 0.500 F 0.201 0.227 o 691 0.46 Yes No
Akka O C 2007-11-14.19060 1.000E-05 03:30:48.050 1.500E-01 0.500 F -0.184 -0.106 +19° 01' 56.80" 1.000E-01 0.500 F 0.254 -0.156 19.4 V 0.70 0.50 o 691 0.38 Yes Yes
2005XL80 O C H 2007-11-14.19321 1.000E-05 03:14:04.390 1.500E-01 0.500 F -0.276 -0.177 +17° 05' 46.70" 1.000E-01 0.500 F 0.201 0.484 o 691 1.03 Yes No
2005YW55 O C 2007-11-14.21209 1.000E-05 03:57:35.150 1.500E-01 0.500 F -0.157 -0.064 +22° 33' 42.30" 1.000E-01 0.500 F 0.147 -0.049 19.5 V 0.70 0.33 o 691 0.16 Yes Yes
2005YW55 O C 2007-11-14.22974 1.000E-05 03:57:33.940 1.500E-01 0.500 F -0.157 0.055 +22° 33' 24.70" 1.000E-01 0.500 F 0.147 0.045 19.5 V 0.70 0.33 o 691 0.14 Yes Yes
2005YW55 O C 2007-11-14.24739 1.000E-05 03:57:32.680 1.500E-01 0.500 F -0.157 -0.402 +22° 33' 06.60" 1.000E-01 0.500 F 0.147 -0.294 19.9 V 0.70 0.73 o 691 1.01 Yes Yes
2007TV68 O C H 2007-11-14.26379 1.000E-05 04:04:52.900 1.500E-01 0.500 F -0.134 -0.097 +22° 03' 52.70" 1.000E-01 0.500 F 0.096 0.368 20.3 V 0.70 0.11 o 691 0.81 Yes Yes
2000NF5 O C 2007-11-14.26626 1.000E-05 04:16:26.410 1.500E-01 0.500 F -0.214 0.044 +22° 46' 02.70" 1.000E-01 0.500 F 0.158 0.055 19.1 V 0.70 -0.36 o 691 0.14 Yes Yes
2003QO104 O C 2007-11-14.26872 1.000E-05 04:21:25.500 1.500E-01 0.500 F -0.288 0.570 +22° 45' 54.50" 1.000E-01 0.500 F 0.210 -0.441 20.6 V 0.70 -0.16 o 691 1.44 Yes Yes
2007TV68 O C H 2007-11-14.28144 1.000E-05 04:04:54.380 1.500E-01 0.500 F -0.134 -0.909 +22° 04' 08.40" 1.000E-01 0.500 F 0.096 -0.091 20.8 V 0.70 0.61 o 691 2.01 Yes Yes
2000NF5 O C 2007-11-14.28390 1.000E-05 04:16:24.990 1.500E-01 0.500 F -0.214 -0.040 +22° 45' 58.80" 1.000E-01 0.500 F 0.158 -0.275 19.8 V 0.70 0.34 o 691 0.56 Yes Yes
2003QO104 O C 2007-11-14.28637 1.000E-05 04:21:24.230 1.500E-01 0.500 F -0.288 -0.072 +22° 45' 54.20" 1.000E-01 0.500 F 0.210 -0.279 20.9 V 0.70 0.14 o 691 0.58 Yes Yes
2007TV68 O C H 2007-11-14.29908 1.000E-05 04:04:55.990 1.500E-01 0.500 F -0.134 0.275 +22° 04' 25.70" 1.000E-01 0.500 F 0.096 1.248 20.4 V 0.70 0.21 o 691 2.73 Yes Yes
2000NF5 O C 2007-11-14.30156 1.000E-05 04:16:23.560 1.500E-01 0.500 F -0.214 -0.217 +22° 45' 55.40" 1.000E-01 0.500 F 0.158 -0.079 19.5 V 0.70 0.04 o 691 0.46 Yes Yes
2003QO104 O C 2007-11-14.30402 1.000E-05 04:21:23.030 1.500E-01 0.500 F -0.288 0.273 +22° 45' 54.40" 1.000E-01 0.500 F 0.210 0.399 21.1 V 0.70 0.34 o 691 0.97 Yes Yes
Cleobulus O C 2007-11-14.50553 1.000E-05 10:54:21.810 1.500E-01 0.500 F 0.082 -0.325 +09° 39' 51.20" 1.000E-01 0.500 F 0.041 -0.086 18.8 V 0.70 0.31 o 691 0.67 Yes Yes
Cleobulus O C 2007-11-14.52157 1.000E-05 10:54:25.080 1.500E-01 0.500 F 0.082 -0.233 +09° 39' 32.40" 1.000E-01 0.500 F 0.041 -0.033 18.7 V 0.70 0.21 o 691 0.47 Yes Yes
Cleobulus O C 2007-11-14.53764 1.000E-05 10:54:28.340 1.500E-01 0.500 F 0.082 -0.341 +09° 39' 13.40" 1.000E-01 0.500 F 0.041 -0.135 18.6 V 0.70 0.11 o 691 0.73 Yes Yes
1997ET30 O C 2007-11-17.13394 1.000E-05 03:19:08.910 1.500E-01 0.500 F -0.221 0.095 +24° 31' 06.70" 1.000E-01 0.500 F 0.169 0.012 20.0 V 0.70 0.26 o 691 0.19 Yes Yes
1997ET30 O C 2007-11-17.14903 1.000E-05 03:19:07.510 1.500E-01 0.500 F -0.221 -0.930 +24° 31' 03.20" 1.000E-01 0.500 F 0.169 -0.650 19.8 V 0.70 0.06 o 691 2.27 Yes Yes
1997ET30 O C 2007-11-17.16413 1.000E-05 03:19:06.300 1.500E-01 0.500 F -0.221 0.686 +24° 31' 01.50" 1.000E-01 0.500 F 0.169 0.504 20.0 V 0.70 0.25 o 691 1.71 Yes Yes
2002JM97 O C H 2007-11-17.35337 1.000E-05 04:54:31.230 1.500E-01 0.500 F -0.266 0.038 +23° 57' 12.90" 1.000E-01 0.500 F 0.136 -0.095 20.6 V 0.70 -0.27 o 691 0.20 Yes Yes
2002JM97 O C H 2007-11-17.37101 1.000E-05 04:54:29.970 1.500E-01 0.500 F -0.266 0.156 +23° 57' 13.80" 1.000E-01 0.500 F 0.136 -0.760 o 691 1.55 Yes No
2007VG189 O C H 2007-11-17.38589 1.000E-05 05:04:34.870 1.500E-01 0.500 F -0.012 0.135 +24° 04' 29.10" 1.000E-01 0.500 F 0.077 0.261 21.3 V 0.70 0.24 o 691 0.59 Yes Yes
2007VG189 O C H 2007-11-17.40352 1.000E-05 05:04:33.030 1.500E-01 0.500 F -0.012 0.522 +24° 04' 20.80" 1.000E-01 0.500 F 0.077 -0.276 21.0 V 0.70 -0.06 o 691 1.20 Yes Yes
2007VG189 O C H 2007-11-17.42117 1.000E-05 05:04:31.140 1.500E-01 0.500 F -0.012 0.231 +24° 04' 12.80" 1.000E-01 0.500 F 0.077 -0.459 o 691 1.04 Yes No
Mera O C 2007-11-18.08087 1.000E-05 02:16:57.030 1.500E-01 0.500 F -0.210 -1.327 +21° 23' 22.70" 1.000E-01 0.500 F 0.289 -0.721 o 691 3.04 Yes No
Mera O C 2007-11-18.10286 1.000E-05 02:16:55.010 1.500E-01 0.500 F -0.210 -0.067 +21° 22' 24.40" 1.000E-01 0.500 F 0.289 -0.081 o 691 0.21 Yes No
Mera O C 2007-11-18.11795 1.000E-05 02:16:53.550 1.500E-01 0.500 F -0.210 -0.152 +21° 21' 43.90" 1.000E-01 0.500 F 0.289 -0.106 o 691 0.37 Yes No
Akka O C 2007-11-18.14047 1.000E-05 03:24:28.310 1.500E-01 0.500 F -0.217 -0.025 +18° 32' 10.80" 1.000E-01 0.500 F 0.316 -0.212 o 691 0.43 Yes No
Akka O C 2007-11-18.15554 1.000E-05 03:24:26.860 1.500E-01 0.500 F -0.217 -0.125 +18° 32' 04.40" 1.000E-01 0.500 F 0.316 -0.109 o 691 0.33 Yes No
Akka O C 2007-11-18.17059 1.000E-05 03:24:25.420 1.500E-01 0.500 F -0.217 -0.054 +18° 31' 57.80" 1.000E-01 0.500 F 0.316 -0.199 o 691 0.41 Yes No
2007VB191 O C t 2007-11-18.18565 1.000E-05 03:45:02.500 1.500E-01 0.500 F -0.073 0.373 +21° 03' 58.40" 1.000E-01 0.500 F 0.170 -0.256 18.8 V 0.70 0.07 o 691 0.95 Yes Yes
2005YW55 O C 2007-11-18.18811 1.000E-05 03:53:07.850 1.500E-01 0.500 F -0.109 -0.104 +21° 22' 23.20" 1.000E-01 0.500 F 0.134 -0.097 o 691 0.29 Yes No
2007VV6 O C 2007-11-18.19082 1.000E-05 03:32:51.130 1.500E-01 0.500 F -0.193 -0.087 +19° 41' 45.00" 1.000E-01 0.500 F 0.184 -0.175 o 691 0.41 Yes No
2007VB191 O C t 2007-11-18.20770 1.000E-05 03:45:22.150 1.500E-01 0.500 F -0.073 0.331 +21° 07' 11.80" 1.000E-01 0.500 F 0.170 -0.642 19.2 V 0.70 0.47 o 691 1.49 Yes Yes
2005YW55 O C 2007-11-18.21016 1.000E-05 03:53:06.190 1.500E-01 0.500 F -0.109 0.004 +21° 21' 58.80" 1.000E-01 0.500 F 0.134 -0.204 o 691 0.41 Yes No
2007VV6 O C 2007-11-18.21286 1.000E-05 03:32:58.250 1.500E-01 0.500 F -0.193 -0.726 +19° 40' 39.70" 1.000E-01 0.500 F 0.184 0.368 o 691 1.75 Yes No
2007VB191 O C t 2007-11-18.22285 1.000E-05 03:45:35.620 1.500E-01 0.500 F -0.073 -0.046 +21° 09' 25.00" 1.000E-01 0.500 F 0.170 -0.626 18.4 V 0.70 -0.32 o 691 1.29 Yes Yes
2005YW55 O C 2007-11-18.22532 1.000E-05 03:53:05.020 1.500E-01 0.500 F -0.109 -0.210 +21° 21' 42.20" 1.000E-01 0.500 F 0.134 -0.045 o 691 0.44 Yes No
2007VV6 O C 2007-11-18.22802 1.000E-05 03:33:03.140 1.500E-01 0.500 F -0.193 -0.430 +19° 39' 53.90" 1.000E-01 0.500 F 0.184 0.200 o 691 1.02 Yes No
2000NF5 O C H 2007-11-18.24033 1.000E-05 04:11:13.070 1.500E-01 0.500 F -0.156 -0.024 +22° 31' 44.80" 1.000E-01 0.500 F 0.202 -0.025 19.6 V 0.70 0.23 o 691 0.07 Yes Yes
2000NF5 O C H 2007-11-18.25549 1.000E-05 04:11:11.830 1.500E-01 0.500 F -0.156 -0.129 +22° 31' 41.40" 1.000E-01 0.500 F 0.202 -0.113 19.7 V 0.70 0.33 o 691 0.34 Yes Yes
2000NF5 O C H 2007-11-18.27087 1.000E-05 04:11:10.580 1.500E-01 0.500 F -0.156 -0.104 +22° 31' 38.00" 1.000E-01 0.500 F 0.202 -0.136 19.6 V 0.70 0.23 o 691 0.34 Yes Yes
2001YJ4 O C H 2007-11-19.07332 1.000E-05 02:44:50.890 1.500E-01 0.500 F -0.320 -0.537 +20° 36' 31.80" 1.000E-01 0.500 F 0.230 -0.964 o 691 2.21 Yes No
2001YJ4 O C H 2007-11-19.09097 1.000E-05 02:44:49.800 1.500E-01 0.500 F -0.320 -0.369 +20° 36' 26.70" 1.000E-01 0.500 F 0.230 0.505 21.2 V 0.70 -0.02 o 691 1.25 Yes Yes
2001YJ4 O C H 2007-11-19.10862 1.000E-05 02:44:48.700 1.500E-01 0.500 F -0.320 -0.310 +20° 36' 19.20" 1.000E-01 0.500 F 0.230 -0.420 21.0 V 0.70 -0.22 o 691 1.04 Yes Yes
2001HW15 O C H 2007-11-19.18166 1.000E-05 03:31:55.700 1.500E-01 0.500 F -0.203 0.225 +18° 30' 59.40" 1.000E-01 0.500 F 0.235 0.392 21.0 V 0.70 -0.43 o 691 0.92 Yes Yes
2007VV6 O C t 2007-11-19.18166 1.000E-05 03:38:43.030 1.500E-01 0.500 F -0.150 0.015 +18° 51' 25.40" 1.000E-01 0.500 F 0.128 -0.164 20.0 V 0.70 0.92 o 691 0.35 Yes Yes
2007WT4 O C 2007-11-19.19410 1.000E-05 03:53:49.240 1.500E-01 0.500 F -0.205 -0.106 +15° 54' 50.70" 1.000E-01 0.500 F 0.216 -0.325 20.9 V 0.70 -0.07 o 691 0.71 Yes Yes
2001HW15 O C H 2007-11-19.19926 1.000E-05 03:31:53.330 1.500E-01 0.500 F -0.203 -1.566 +18° 31' 07.90" 1.000E-01 0.500 F 0.235 1.643 o 691 4.53 No No
2007WT4 O C 2007-11-19.21171 1.000E-05 03:53:49.810 1.500E-01 0.500 F -0.205 -0.068 +15° 54' 26.50" 1.000E-01 0.500 F 0.216 -0.857 21.3 V 0.70 0.33 o 691 1.80 Yes Yes
2001HW15 O C H 2007-11-19.21688 1.000E-05 03:31:51.190 1.500E-01 0.500 F -0.203 0.008 +18° 31' 13.10" 1.000E-01 0.500 F 0.235 -0.386 o 691 0.78 Yes No
2007WT4 O C 2007-11-19.22934 1.000E-05 03:53:50.390 1.500E-01 0.500 F -0.205 0.278 +15° 54' 03.50" 1.000E-01 0.500 F 0.216 -0.097 21.1 V 0.70 0.13 o 691 0.62 Yes Yes
2007SS1 O C H 2007-11-19.24206 1.000E-05 04:17:14.990 1.500E-01 0.500 F -0.137 -0.620 +28° 25' 12.60" 1.000E-01 0.500 F 0.153 0.404 21.2 V 0.70 -0.51 o 691 1.60 Yes Yes
2007SS1 O C H 2007-11-19.25971 1.000E-05 04:17:13.930 1.500E-01 0.500 F -0.137 0.299 +28° 25' 17.00" 1.000E-01 0.500 F 0.153 0.499 o 691 1.25 Yes No
2007SS1 O C H 2007-11-19.27482 1.000E-05 04:17:12.860 1.500E-01 0.500 F -0.137 -0.941 +28° 25' 20.00" 1.000E-01 0.500 F 0.153 -0.055 21.0 V 0.70 -0.71 o 691 2.08 Yes Yes
2007WU4 O C 2007-11-19.35073 1.000E-05 05:03:55.110 1.500E-01 0.500 F -0.281 0.036 +19° 56' 46.00" 1.000E-01 0.500 F 0.257 -0.156 19.9 V 0.70 -0.03 o 691 0.32 Yes Yes
2007WU4 O C 2007-11-19.36839 1.000E-05 05:03:52.750 1.500E-01 0.500 F -0.281 -0.099 +19° 57' 18.90" 1.000E-01 0.500 F 0.257 -0.176 19.8 V 0.70 -0.13 o 691 0.41 Yes Yes
2007WU4 O C 2007-11-19.38604 1.000E-05 05:03:50.380 1.500E-01 0.500 F -0.281 -0.394 +19° 57' 52.20" 1.000E-01 0.500 F 0.257 0.272 19.7 V 0.70 -0.23 o 691 0.97 Yes Yes
2007WV4 O C 2007-11-19.39373 1.000E-05 05:35:15.170 1.500E-01 0.500 F -0.133 -0.243 +29° 00' 47.80" 1.000E-01 0.500 F 0.101 -0.067 20.1 V 0.70 -0.34 o 691 0.51 Yes Yes
2007WV4 O C 2007-11-19.41139 1.000E-05 05:35:13.060 1.500E-01 0.500 F -0.133 -0.268 +29° 00' 07.10" 1.000E-01 0.500 F 0.101 0.316 19.8 V 0.70 -0.64 o 691 0.84 Yes Yes
2007WV4 O C 2007-11-19.42906 1.000E-05 05:35:10.970 1.500E-01 0.500 F -0.133 -0.020 +28° 59' 25.60" 1.000E-01 0.500 F 0.101 0.025 19.9 V 0.70 -0.53 o 691 0.06 Yes Yes
2007WJ3 O C 2007-11-20.16475 1.000E-05 03:23:56.520 1.500E-01 0.500 F -0.261 -0.322 +13° 37' 22.60" 1.000E-01 0.500 F 0.218 0.023 19.8 V 0.70 0.01 o 691 0.69 Yes Yes
1997WS22 O C 2007-11-20.16475 1.000E-05 03:24:01.750 1.500E-01 0.500 F -0.298 -0.337 +13° 15' 26.70" 1.000E-01 0.500 F 0.258 0.050 16.8 V 0.70 0.03 o 691 0.68 Yes Yes
2007WJ3 O C 2007-11-20.18236 1.000E-05 03:23:57.490 1.500E-01 0.500 F -0.261 -0.174 +13° 35' 37.10" 1.000E-01 0.500 F 0.218 0.044 19.9 V 0.70 0.11 o 691 0.38 Yes Yes
1997WS22 O C 2007-11-20.18236 1.000E-05 03:23:58.090 1.500E-01 0.500 F -0.298 -0.282 +13° 16' 03.50" 1.000E-01 0.500 F 0.258 0.010 16.8 V 0.70 0.03 o 691 0.57 Yes Yes
2007WJ3 O C 2007-11-20.19997 1.000E-05 03:23:58.330 1.500E-01 0.500 F -0.298 -0.464 +13° 33' 51.40" 1.000E-01 0.500 F 0.258 -0.358 20.0 V 0.70 0.20 o 691 1.23 Yes Yes
1997WS22 O C 2007-11-20.19997 1.000E-05 03:23:54.420 1.500E-01 0.500 F -0.298 -0.242 +13° 16' 40.30" 1.000E-01 0.500 F 0.258 0.013 16.8 V 0.70 0.03 o 691 0.49 Yes Yes
2007SS1 O C H 2007-11-20.27066 1.000E-05 04:16:22.120 1.500E-01 0.500 F -0.137 0.686 +28° 28' 26.80" 1.000E-01 0.500 F 0.153 -0.784 21.3 V 0.70 -0.44 o 691 2.22 Yes Yes
2007SS1 O C H 2007-11-20.30597 1.000E-05 04:16:19.870 1.500E-01 0.500 F -0.137 0.802 +28° 28' 33.60" 1.000E-01 0.500 F 0.153 -0.826 21.0 V 0.70 -0.74 o 691 2.47 Yes Yes
2007VB191 O C t 2007-11-20.33118 1.000E-05 04:33:23.870 1.500E-01 0.500 F -0.164 -0.199 +27° 33' 22.70" 1.000E-01 0.500 F 0.168 -1.186 18.0 V 0.70 -0.50 o 691 2.52 Yes Yes
2001XS30 O C 2007-11-20.33611 1.000E-05 04:51:13.290 1.500E-01 0.500 F -0.088 -0.097 +27° 30' 42.00" 1.000E-01 0.500 F 0.222 -0.266 19.9 V 0.70 -0.16 o 691 0.57 Yes Yes
2007VB191 O C t 2007-11-20.34906 1.000E-05 04:33:56.400 1.500E-01 0.500 F -0.164 0.520 +27° 37' 22.90" 1.000E-01 0.500 F 0.168 -1.281 18.2 V 0.70 -0.30 o 691 2.89 Yes Yes
2001XS30 O C 2007-11-20.35399 1.000E-05 04:51:10.100 1.500E-01 0.500 F -0.088 -0.523 +27° 30' 30.30" 1.000E-01 0.500 F 0.222 0.067 19.9 V 0.70 -0.15 o 691 1.06 Yes Yes
2007VB191 O C H 2007-11-20.36970 1.000E-05 04:34:34.220 1.500E-01 0.500 F -0.160 1.107 +27° 42' 01.20" 1.000E-01 0.500 F 0.122 0.362 o 691 2.52 Yes No
2001XS30 O C 2007-11-20.37463 1.000E-05 04:51:06.480 1.500E-01 0.500 F -0.088 -0.184 +27° 30' 16.40" 1.000E-01 0.500 F 0.222 0.117 21.1 V 0.70 1.05 o 691 0.44 Yes Yes
1993VD O C H 2007-11-20.38443 1.000E-05 05:11:34.630 1.500E-01 0.500 F -0.161 0.211 +29° 46' 55.60" 1.000E-01 0.500 F 0.151 -1.047 o 691 2.14 Yes No
1993VD O C t 2007-11-20.40209 1.000E-05 05:11:28.620 1.500E-01 0.500 F -0.161 -0.414 +29° 46' 53.30" 1.000E-01 0.500 F 0.151 -0.524 o 691 1.34 Yes No
1993VD O C t 2007-11-20.41975 1.000E-05 05:11:22.700 1.500E-01 0.500 F -0.161 0.083 +29° 46' 49.90" 1.000E-01 0.500 F 0.151 -0.953 21.1 V 0.70 0.44 o 691 1.92 Yes Yes
2003KW16 O C t 2007-11-20.45283 1.000E-05 05:37:21.990 1.500E-01 0.500 F -0.060 -0.425 +19° 45' 55.10" 1.000E-01 0.500 F 0.127 0.040 21.1 V 0.70 -0.47 o 691 0.93 Yes Yes
2004BF68 O C H 2007-11-20.46284 1.000E-05 05:40:05.550 1.500E-01 0.500 F -0.116 -0.524 +16° 29' 46.10" 1.000E-01 0.500 F 0.121 0.435 21.5 V 0.70 0.10 o 691 1.37 Yes Yes
2003KW16 O C H 2007-11-20.47048 1.000E-05 05:37:19.630 1.500E-01 0.500 F -0.060 -0.236 +19° 45' 15.90" 1.000E-01 0.500 F 0.127 -1.426 o 691 2.97 Yes No
2004BF68 O C H 2007-11-20.48048 1.000E-05 05:40:04.440 1.500E-01 0.500 F -0.116 0.244 +16° 29' 38.20" 1.000E-01 0.500 F 0.121 -1.176 o 691 2.42 Yes No
2007WV4 O C H 2007-11-21.41233 1.000E-05 05:31:14.980 1.500E-01 0.500 F -0.191 0.301 +27° 39' 15.70" 1.000E-01 0.500 F 0.142 -0.636 o 691 1.42 Yes No
2007WV4 O C H 2007-11-21.41524 1.000E-05 05:31:14.600 1.500E-01 0.500 F -0.191 0.286 +27° 39' 08.00" 1.000E-01 0.500 F 0.142 -0.952 o 691 2.00 Yes No
2007WV4 O C H 2007-11-21.41833 1.000E-05 05:31:14.220 1.500E-01 0.500 F -0.191 0.583 +27° 39' 00.20" 1.000E-01 0.500 F 0.142 -0.908 o 691 2.18 Yes No
2007OG3 O C 2007-12-03.31083 1.000E-05 06:36:42.250 1.500E-01 0.500 F -0.074 -0.433 +23° 27' 18.20" 1.000E-01 0.500 F 0.113 -0.240 19.8 V 0.70 0.28 o 691 1.00 Yes Yes
2007OG3 O C 2007-12-03.32847 1.000E-05 06:36:40.620 1.500E-01 0.500 F -0.074 0.140 +23° 27' 22.10" 1.000E-01 0.500 F 0.113 0.236 20.3 V 0.70 0.78 o 691 0.55 Yes Yes
2007OG3 O C 2007-12-03.34611 1.000E-05 06:36:38.910 1.500E-01 0.500 F -0.074 -0.336 +23° 27' 24.60" 1.000E-01 0.500 F 0.113 -0.643 19.6 V 0.70 0.08 o 691 1.46 Yes Yes
2001CP44 O C 2007-12-03.41816 1.000E-05 07:26:45.780 1.500E-01 0.500 F -0.066 -0.143 +23° 54' 37.50" 1.000E-01 0.500 F 0.237 0.128 19.3 V 0.70 -0.18 o 691 0.38 Yes Yes
2001CP44 O C 2007-12-03.43581 1.000E-05 07:26:45.060 1.500E-01 0.500 F -0.066 -0.440 +23° 54' 41.40" 1.000E-01 0.500 F 0.237 0.051 19.4 V 0.70 -0.08 o 691 0.89 Yes Yes
2001CP44 O C 2007-12-03.45344 1.000E-05 07:26:44.370 1.500E-01 0.500 F -0.066 -0.334 +23° 54' 45.40" 1.000E-01 0.500 F 0.237 0.090 19.4 V 0.70 -0.08 o 691 0.69 Yes Yes
2007RU12 O C 2007-12-04.07194 1.000E-05 03:07:08.190 1.500E-01 0.500 F -0.165 -0.235 +21° 48' 21.00" 1.000E-01 0.500 F 0.326 -0.637 19.5 V 0.70 0.15 o 691 1.37 Yes Yes
2007RU12 O C 2007-12-04.08874 1.000E-05 03:07:08.600 1.500E-01 0.500 F -0.165 -0.091 +21° 48' 41.40" 1.000E-01 0.500 F 0.326 -0.257 19.7 V 0.70 0.35 o 691 0.55 Yes Yes
2007RU12 O C 2007-12-04.10210 1.000E-05 03:07:08.890 1.500E-01 0.500 F -0.165 -0.353 +21° 48' 57.80" 1.000E-01 0.500 F 0.326 0.262 19.7 V 0.70 0.35 o 691 0.89 Yes Yes
2003YM137 O C H 2007-12-04.16056 1.000E-05 05:06:00.660 1.500E-01 0.500 F -0.131 0.759 +22° 40' 48.50" 1.000E-01 0.500 F 0.090 0.355 o 691 1.79 Yes No
2007VJ8 O C H 2007-12-04.16549 1.000E-05 05:25:37.300 1.500E-01 0.500 F -0.087 -2.309 +22° 28' 23.60" 1.000E-01 0.500 F 0.164 -0.413 o 691 3.47 No No
2007VJ8 O C H 2007-12-04.18313 1.000E-05 05:25:40.720 1.500E-01 0.500 F -0.087 -3.350 +22° 28' 26.20" 1.000E-01 0.500 F 0.164 -0.503 o 691 5.07 No No
2003YM137 O C H 2007-12-04.19584 1.000E-05 05:05:57.440 1.500E-01 0.500 F -0.131 0.723 +22° 40' 46.20" 1.000E-01 0.500 F 0.090 -0.091 o 691 1.55 Yes No
2007VJ8 O C H 2007-12-04.20077 1.000E-05 05:25:44.400 1.500E-01 0.500 F -0.087 -0.281 +22° 28' 28.30" 1.000E-01 0.500 F 0.164 -0.959 o 691 2.48 Yes No
2003BD44 O C 2007-12-04.39462 1.000E-05 07:16:35.030 1.500E-01 0.500 F -0.100 -0.453 +18° 35' 55.00" 1.000E-01 0.500 F 0.109 0.024 21.3 V 0.70 -0.53 o 691 0.91 Yes Yes
2003BD44 O C 2007-12-04.41225 1.000E-05 07:16:34.110 1.500E-01 0.500 F -0.100 -0.562 +18° 35' 55.80" 1.000E-01 0.500 F 0.109 0.074 21.6 V 0.70 -0.23 o 691 1.13 Yes Yes
2003BD44 O C 2007-12-04.42988 1.000E-05 07:16:33.190 1.500E-01 0.500 F -0.100 -0.664 +18° 35' 56.40" 1.000E-01 0.500 F 0.109 -0.065 21.8 V 0.70 -0.03 o 691 1.34 Yes Yes
2007XQ3 O C 2007-12-04.44620 1.000E-05 07:28:06.990 1.500E-01 0.500 F -0.018 -0.107 +18° 43' 34.20" 1.000E-01 0.500 F 0.147 0.150 21.3 V 0.70 -0.02 o 691 0.39 Yes Yes
2007XQ3 O C 2007-12-04.46382 1.000E-05 07:28:09.200 1.500E-01 0.500 F -0.018 -0.314 +18° 43' 03.80" 1.000E-01 0.500 F 0.147 0.225 21.0 V 0.70 -0.32 o 691 0.82 Yes Yes
2007XQ3 O C 2007-12-04.48143 1.000E-05 07:28:11.460 1.500E-01 0.500 F -0.018 0.133 +18° 42' 33.20" 1.000E-01 0.500 F 0.147 0.185 20.7 V 0.70 -0.62 o 691 0.49 Yes Yes
2007WY3 O C 2007-12-04.49785 1.000E-05 08:09:52.490 1.500E-01 0.500 F 0.024 0.158 +24° 24' 03.20" 1.000E-01 0.500 F 0.174 -0.181 20.4 V 0.70 -0.27 o 691 0.48 Yes Yes
2005YY128 O C H 2007-12-04.50795 1.000E-05 08:04:59.620 1.500E-01 0.500 F 0.009 0.723 +22° 23' 28.10" 1.000E-01 0.500 F 0.181 -0.293 o 691 1.56 Yes No
2007WY3 O C 2007-12-04.51301 1.000E-05 08:09:50.710 1.500E-01 0.500 F 0.024 0.011 +24° 24' 02.60" 1.000E-01 0.500 F 0.174 -0.173 20.4 V 0.70 -0.27 o 691 0.35 Yes Yes
2005YY128 O C H 2007-12-04.52311 1.000E-05 08:04:58.970 1.500E-01 0.500 F 0.009 0.073 +22° 23' 29.50" 1.000E-01 0.500 F 0.181 -0.541 o 691 1.09 Yes No
2007WY3 O C 2007-12-04.52816 1.000E-05 08:09:48.950 1.500E-01 0.500 F 0.024 0.101 +24° 24' 02.00" 1.000E-01 0.500 F 0.174 -0.139 20.5 V 0.70 -0.17 o 691 0.34 Yes Yes
2005YY128 O C H 2007-12-04.53826 1.000E-05 08:04:58.350 1.500E-01 0.500 F 0.009 -0.179 +22° 23' 31.10" 1.000E-01 0.500 F 0.181 -0.573 21.3 V 0.70 -0.50 o 691 1.20 Yes Yes
1999VL12 O C 2007-12-05.06707 1.000E-05 02:54:04.910 1.500E-01 0.500 F -0.282 -0.196 +13° 04' 28.50" 1.000E-01 0.500 F 0.224 -0.059 19.2 V 0.70 0.02 o 691 0.41 Yes Yes
Akka O C 2007-12-05.07773 1.000E-05 03:03:09.360 1.500E-01 0.500 F -0.170 -0.129 +16° 43' 51.70" 1.000E-01 0.500 F 0.197 0.027 20.0 V 0.70 0.11 o 691 0.26 Yes Yes
1999VL12 O C 2007-12-05.08292 1.000E-05 02:54:04.050 1.500E-01 0.500 F -0.282 -0.218 +13° 04' 12.20" 1.000E-01 0.500 F 0.224 0.033 19.0 V 0.70 -0.18 o 691 0.44 Yes Yes
Akka O C 2007-12-05.09358 1.000E-05 03:03:08.450 1.500E-01 0.500 F -0.170 -0.294 +16° 43' 46.90" 1.000E-01 0.500 F 0.197 -0.212 19.9 V 0.70 0.01 o 691 0.73 Yes Yes
1999VL12 O C 2007-12-05.09877 1.000E-05 02:54:03.190 1.500E-01 0.500 F -0.282 -0.187 +13° 03' 55.40" 1.000E-01 0.500 F 0.224 -0.371 19.0 V 0.70 -0.18 o 691 0.83 Yes Yes
Akka O C 2007-12-05.10943 1.000E-05 03:03:07.550 1.500E-01 0.500 F -0.170 -0.266 +16° 43' 42.50" 1.000E-01 0.500 F 0.197 -0.040 20.1 V 0.70 0.21 o 691 0.54 Yes Yes
2007XB10 O C 2007-12-05.16649 1.000E-05 05:28:50.480 1.500E-01 0.500 F -0.110 -0.102 +26° 18' 03.10" 1.000E-01 0.500 F 0.154 -0.165 20.9 V 0.70 -0.33 o 691 0.39 Yes Yes
2003WL25 O C H 2007-12-05.17389 1.000E-05 05:51:39.720 1.500E-01 0.500 F -0.127 0.171 +26° 01' 12.20" 1.000E-01 0.500 F 0.106 -0.698 o 691 1.44 Yes No
2007XB10 O C 2007-12-05.18414 1.000E-05 05:28:48.570 1.500E-01 0.500 F -0.110 -0.133 +26° 17' 50.60" 1.000E-01 0.500 F 0.154 -0.050 20.9 V 0.70 -0.33 o 691 0.29 Yes Yes
2003WL25 O C H 2007-12-05.19153 1.000E-05 05:51:38.200 1.500E-01 0.500 F -0.127 0.745 +26° 01' 08.00" 1.000E-01 0.500 F 0.106 -0.822 o 691 2.23 Yes No
2007XB10 O C 2007-12-05.20180 1.000E-05 05:28:46.670 1.500E-01 0.500 F -0.110 0.030 +26° 17' 37.80" 1.000E-01 0.500 F 0.154 -0.210 21.0 V 0.70 -0.23 o 691 0.43 Yes Yes
2000WO107 O C 2007-12-05.33226 1.000E-05 06:57:39.640 1.500E-01 0.500 F -0.114 -0.601 +28° 32' 56.30" 1.000E-01 0.500 F 0.229 0.007 18.5 V 0.70 0.17 o 691 1.20 Yes Yes
2001BA40 O C H 2007-12-05.33719 1.000E-05 07:16:16.100 1.500E-01 0.612 F -0.049 -0.052 +27° 19' 45.20" 1.000E-01 0.612 F 0.158 -0.701 o 691 1.15 Yes No
2000WO107 O C 2007-12-05.34991 1.000E-05 06:57:29.510 1.500E-01 0.500 F -0.114 -0.424 +28° 33' 22.10" 1.000E-01 0.500 F 0.229 0.072 18.6 V 0.70 0.27 o 691 0.86 Yes Yes
2001BA40 O C H 2007-12-05.35247 1.000E-05 07:16:14.080 1.500E-01 0.612 F -0.049 -0.253 +27° 19' 33.30" 1.000E-01 0.612 F 0.158 -0.148 19.1 V 0.70 0.16 o 691 0.48 Yes Yes
2000WO107 O C 2007-12-05.36520 1.000E-05 06:57:20.770 1.500E-01 0.500 F -0.114 0.260 +28° 33' 44.10" 1.000E-01 0.500 F 0.229 -0.066 19.9 V 0.70 1.58 o 691 0.54 Yes Yes
2001BA40 O C H 2007-12-05.36775 1.000E-05 07:16:12.070 1.500E-01 0.612 F -0.049 -0.252 +27° 19' 20.80" 1.000E-01 0.612 F 0.158 -0.125 19.0 V 0.70 0.06 o 691 0.46 Yes Yes
2007XJ16 O C 2007-12-05.38279 1.000E-05 07:23:58.570 1.500E-01 0.500 F -0.027 1.084 +29° 33' 08.90" 1.000E-01 0.500 F 0.183 0.157 20.8 V 0.70 -0.64 o 691 2.22 Yes Yes
2001BA40 O C 2007-12-05.38539 1.000E-05 07:16:09.790 1.500E-01 0.612 F -0.049 0.356 +27° 19' 06.20" 1.000E-01 0.612 F 0.158 -0.180 18.7 V 0.70 -0.24 o 691 0.65 Yes Yes
2007XJ16 O C 2007-12-05.40056 1.000E-05 07:23:56.810 1.500E-01 0.500 F -0.027 -0.199 +29° 33' 09.70" 1.000E-01 0.500 F 0.183 -0.301 21.1 V 0.70 -0.34 o 691 0.72 Yes Yes
2001BA40 O C 2007-12-05.40318 1.000E-05 07:16:07.400 1.500E-01 0.612 F -0.049 -0.187 +27° 18' 51.60" 1.000E-01 0.612 F 0.158 -0.014 18.8 V 0.70 -0.14 o 691 0.31 Yes Yes
2007XJ16 O C 2007-12-05.41846 1.000E-05 07:23:55.150 1.500E-01 0.500 F -0.027 -0.001 +29° 33' 11.00" 1.000E-01 0.500 F 0.183 -0.220 20.9 V 0.70 -0.54 o 691 0.44 Yes Yes
2001BA40 O C 2007-12-05.42106 1.000E-05 07:16:05.030 1.500E-01 0.612 F -0.049 -0.274 +27° 18' 36.70" 1.000E-01 0.612 F 0.158 0.026 18.8 V 0.70 -0.13 o 691 0.45 Yes Yes
2000YJ66 O C H 2007-12-05.43844 1.000E-05 08:03:24.180 1.500E-01 0.612 F -0.001 -0.207 +25° 49' 52.10" 1.000E-01 0.612 F 0.229 -0.039 18.5 V 0.70 0.26 o 691 0.34 Yes Yes
2000YJ66 O C 2007-12-05.44090 1.000E-05 08:03:24.060 1.500E-01 0.612 F -0.001 -0.188 +25° 49' 52.20" 1.000E-01 0.612 F 0.229 -0.059 18.3 V 0.70 0.06 o 691 0.32 Yes Yes
2007XD10 O C 2007-12-05.44337 1.000E-05 08:15:31.620 1.500E-01 0.500 F -0.049 -0.541 +25° 29' 45.00" 1.000E-01 0.500 F 0.158 -0.452 20.5 V 0.70 -0.23 o 691 1.53 Yes Yes
2000YJ66 O C H 2007-12-05.45622 1.000E-05 08:03:23.310 1.500E-01 0.612 F -0.001 -0.107 +25° 49' 53.00" 1.000E-01 0.612 F 0.229 0.003 18.5 V 0.70 0.26 o 691 0.17 Yes Yes
2000YJ66 O C 2007-12-05.45869 1.000E-05 08:03:23.180 1.500E-01 0.612 F -0.001 -0.216 +25° 49' 53.10" 1.000E-01 0.612 F 0.229 -0.013 18.3 V 0.70 0.06 o 691 0.35 Yes Yes
2007XD10 O C 2007-12-05.46116 1.000E-05 08:15:26.380 1.500E-01 0.500 F -0.049 -0.117 +25° 29' 15.60" 1.000E-01 0.500 F 0.158 0.587 20.1 V 0.70 -0.63 o 691 1.30 Yes Yes
2000YJ66 O C H 2007-12-05.47389 1.000E-05 08:03:22.430 1.500E-01 0.612 F -0.001 -0.211 +25° 49' 53.80" 1.000E-01 0.612 F 0.229 -0.015 18.4 V 0.70 0.16 o 691 0.35 Yes Yes
2000YJ66 O C 2007-12-05.47636 1.000E-05 08:03:22.310 1.500E-01 0.612 F -0.001 -0.185 +25° 49' 54.00" 1.000E-01 0.612 F 0.229 0.073 18.2 V 0.70 -0.04 o 691 0.33 Yes Yes
2007XD10 O C 2007-12-05.47882 1.000E-05 08:15:21.150 1.500E-01 0.500 F -0.049 -0.109 +25° 28' 44.40" 1.000E-01 0.500 F 0.158 -0.295 20.7 V 0.70 -0.03 o 691 0.68 Yes Yes
2007RU12 O C H 2007-12-06.07847 1.000E-05 03:08:09.790 1.500E-01 0.500 F -0.165 0.433 +22° 25' 56.70" 1.000E-01 0.500 F 0.326 -0.686 o 691 1.63 Yes No
2007RU12 O C H 2007-12-06.09482 1.000E-05 03:08:10.210 1.500E-01 0.500 F -0.165 0.047 +22° 26' 15.80" 1.000E-01 0.500 F 0.326 -0.113 o 691 0.25 Yes No
2007RU12 O C H 2007-12-06.11117 1.000E-05 03:08:10.640 1.500E-01 0.500 F -0.165 -0.050 +22° 26' 34.00" 1.000E-01 0.500 F 0.326 -0.381 o 691 0.77 Yes No
2007XB10 O C H 2007-12-06.23225 1.000E-05 05:26:56.600 1.500E-01 0.559 F -0.110 0.154 +26° 05' 08.80" 1.000E-01 0.559 F 0.154 0.584 20.6 V 0.70 -0.61 o 691 1.09 Yes Yes
2007XB10 O C H 2007-12-06.23562 1.000E-05 05:26:56.210 1.500E-01 0.559 F -0.110 -0.181 +26° 05' 05.50" 1.000E-01 0.559 F 0.154 -0.279 20.7 V 0.70 -0.51 o 691 0.60 Yes Yes
2007XB10 O C H 2007-12-06.24188 1.000E-05 05:26:55.930 1.500E-01 0.559 F -0.110 5.188 +26° 04' 59.30" 1.000E-01 0.559 F 0.154 -1.951 o 691 9.80 No No
2007XB10 O C H 2007-12-06.24479 1.000E-05 05:26:55.160 1.500E-01 0.559 F -0.110 -0.935 +26° 04' 59.40" 1.000E-01 0.559 F 0.154 0.255 o 691 1.75 Yes No
2007XB10 O C H 2007-12-06.24799 1.000E-05 05:26:54.910 1.500E-01 0.559 F -0.110 0.372 +26° 04' 56.80" 1.000E-01 0.559 F 0.154 -0.029 o 691 0.67 Yes No
2007XJ16 O C H 2007-12-06.30287 1.000E-05 07:22:34.940 1.500E-01 0.500 F -0.030 -0.068 +29° 34' 07.80" 1.000E-01 0.500 F 0.212 -0.413 o 691 0.84 Yes No
2007XJ16 O C H 2007-12-06.30614 1.000E-05 07:22:34.700 1.500E-01 0.500 F -0.030 0.852 +29° 34' 08.30" 1.000E-01 0.500 F 0.212 -0.165 o 691 1.77 Yes No
2007XD10 O C H 2007-12-06.31874 1.000E-05 08:11:22.140 1.500E-01 0.500 F -0.008 0.126 +25° 04' 46.10" 1.000E-01 0.500 F 0.150 -2.071 o 691 3.92 No No
2007XD10 O C H 2007-12-06.32171 1.000E-05 08:11:21.270 1.500E-01 0.500 F -0.008 0.063 +25° 04' 41.00" 1.000E-01 0.500 F 0.150 -2.214 o 691 4.19 No No
2006SK198 O C H 2007-12-06.40173 1.000E-05 07:23:10.440 1.500E-01 0.500 F -0.083 -0.968 +18° 02' 27.40" 1.000E-01 0.500 F 0.088 -1.033 21.1 V 0.70 0.20 o 691 2.85 Yes Yes
2007XQ3 O C 2007-12-06.40419 1.000E-05 07:32:33.080 1.500E-01 0.500 F -0.054 -0.027 +17° 45' 46.70" 1.000E-01 0.500 F 0.142 0.341 21.5 V 0.70 0.28 o 691 0.72 Yes Yes
Jasonwheeler O C H 2007-12-06.40665 1.000E-05 07:39:21.290 1.500E-01 0.500 F 0.046 0.545 +16° 32' 13.30" 1.000E-01 0.500 F 0.203 0.286 o 691 1.23 Yes No
2003UD22 O C 2007-12-06.41183 1.000E-05 07:22:48.630 1.500E-01 0.500 F -0.163 0.689 +16° 04' 59.80" 1.000E-01 0.500 F 0.142 1.620 19.9 V 0.70 -0.69 o 691 3.50 No Yes
1994ND O C H 2007-12-06.41183 1.000E-05 07:25:03.540 1.500E-01 0.500 F -0.180 0.179 +15° 32' 15.50" 1.000E-01 0.500 F 0.134 -0.801 o 691 1.65 Yes No
2006SK198 O C H 2007-12-06.41937 1.000E-05 07:23:09.680 1.500E-01 0.500 F -0.083 0.208 +18° 02' 25.80" 1.000E-01 0.500 F 0.088 -0.912 o 691 1.89 Yes No
2007XQ3 O C 2007-12-06.42184 1.000E-05 07:32:35.280 1.500E-01 0.500 F -0.054 -0.122 +17° 45' 13.90" 1.000E-01 0.500 F 0.142 -0.278 21.0 V 0.70 -0.22 o 691 0.64 Yes Yes
2003KR18 O C H 2007-12-06.42184 1.000E-05 07:31:09.010 1.500E-01 0.500 F -0.043 -0.036 +17° 07' 33.10" 1.000E-01 0.500 F 0.129 -0.443 o 691 0.89 Yes No
Jasonwheeler O C H 2007-12-06.42430 1.000E-05 07:39:20.460 1.500E-01 0.500 F -0.006 -1.059 +16° 32' 14.20" 1.000E-01 0.500 F 0.171 -0.625 o 691 2.46 Yes No
2003UD22 O C 2007-12-06.42947 1.000E-05 07:22:46.750 1.500E-01 0.500 F -0.163 0.046 +16° 04' 46.80" 1.000E-01 0.500 F 0.142 -0.092 20.4 V 0.70 -0.19 o 691 0.21 Yes Yes
1994ND O C H 2007-12-06.42947 1.000E-05 07:25:02.220 1.500E-01 0.500 F -0.180 -0.261 +15° 32' 28.90" 1.000E-01 0.500 F 0.134 -0.234 o 691 0.71 Yes No
2006SK198 O C H 2007-12-06.43702 1.000E-05 07:23:08.880 1.500E-01 0.500 F -0.083 0.826 +18° 02' 24.70" 1.000E-01 0.500 F 0.088 -0.276 o 691 1.76 Yes No
2003KR18 O C H 2007-12-06.43948 1.000E-05 07:31:08.030 1.500E-01 0.500 F -0.043 0.042 +17° 07' 32.60" 1.000E-01 0.500 F 0.129 -0.247 o 691 0.50 Yes No
2007XQ3 O C 2007-12-06.43948 1.000E-05 07:32:37.510 1.500E-01 0.500 F -0.054 0.222 +17° 44' 41.80" 1.000E-01 0.500 F 0.142 -0.111 21.3 V 0.70 0.08 o 691 0.52 Yes Yes
Jasonwheeler O C H 2007-12-06.44194 1.000E-05 07:39:19.800 1.500E-01 0.500 F -0.006 -0.271 +16° 32' 15.10" 1.000E-01 0.500 F 0.171 -1.558 o 691 3.16 No No
2003UD22 O C 2007-12-06.44711 1.000E-05 07:22:44.900 1.500E-01 0.500 F -0.163 -0.163 +16° 04' 35.70" 1.000E-01 0.500 F 0.142 0.137 20.6 V 0.70 0.01 o 691 0.44 Yes Yes
1994ND O C H 2007-12-06.44711 1.000E-05 07:25:00.980 1.500E-01 0.500 F -0.180 0.456 +15° 32' 41.90" 1.000E-01 0.500 F 0.134 -0.052 21.4 V 0.70 0.31 o 691 0.93 Yes Yes
1998NU O C 2007-12-14.07419 1.000E-05 03:08:53.430 1.500E-01 0.500 F -0.165 -0.241 +22° 18' 35.30" 1.000E-01 0.500 F 0.326 -0.005 18.1 V 0.70 0.14 o 691 0.48 Yes Yes
1998NU O C 2007-12-14.08754 1.000E-05 03:08:52.490 1.500E-01 0.500 F -0.165 -0.022 +22° 18' 30.00" 1.000E-01 0.500 F 0.326 -0.049 18.0 V 0.70 0.04 o 691 0.11 Yes Yes
1998NU O C 2007-12-14.10088 1.000E-05 03:08:51.530 1.500E-01 0.500 F -0.165 -0.056 +22° 18' 24.80" 1.000E-01 0.500 F 0.326 0.018 18.0 V 0.70 0.04 o 691 0.12 Yes Yes
2007XT3 O C H 2007-12-15.08154 1.000E-05 03:01:36.220 1.500E-01 0.500 F -0.103 -0.572 +20° 20' 11.50" 1.000E-01 0.500 F 0.248 -0.890 o 691 2.23 Yes No
2007XT3 O C H 2007-12-15.09835 1.000E-05 03:01:28.850 1.500E-01 0.500 F -0.103 -0.990 +20° 22' 39.90" 1.000E-01 0.500 F 0.248 1.543 o 691 3.49 No No
2007XT3 O C H 2007-12-15.11171 1.000E-05 03:01:23.200 1.500E-01 0.500 F -0.103 1.953 +20° 24' 31.70" 1.000E-01 0.500 F 0.248 -2.651 o 691 6.27 No No
2007XB10 O C H 2007-12-15.15206 1.000E-05 05:11:32.960 1.500E-01 0.500 F 0.013 0.146 +24° 14' 56.60" 1.000E-01 0.500 F 0.040 -0.634 o 691 1.32 Yes No
2007OG3 O C 2007-12-15.29219 1.000E-05 06:17:04.390 1.500E-01 0.500 F -0.040 -0.571 +23° 59' 29.30" 1.000E-01 0.500 F 0.170 -0.014 20.0 V 0.70 0.67 o 691 1.16 Yes Yes
2007XT58 O C 2007-12-15.30474 1.000E-05 06:19:08.610 1.500E-01 0.500 F -0.024 -0.318 +23° 13' 45.70" 1.000E-01 0.500 F 0.191 -0.128 19.3 V 0.70 0.27 o 691 0.70 Yes Yes
2007OG3 O C 2007-12-15.30983 1.000E-05 06:17:02.530 1.500E-01 0.500 F -0.040 -0.477 +23° 59' 31.80" 1.000E-01 0.500 F 0.170 0.078 20.5 V 0.70 1.17 o 691 0.98 Yes Yes
2007XT58 O C 2007-12-15.32239 1.000E-05 06:19:07.310 1.500E-01 0.500 F -0.024 -0.242 +23° 13' 43.80" 1.000E-01 0.500 F 0.191 0.062 19.4 V 0.70 0.37 o 691 0.51 Yes Yes
2007OG3 O C 2007-12-15.32747 1.000E-05 06:17:00.670 1.500E-01 0.500 F -0.040 -0.361 +23° 59' 34.00" 1.000E-01 0.500 F 0.170 -0.081 19.9 V 0.70 0.57 o 691 0.75 Yes Yes
2007XT58 O C 2007-12-15.34003 1.000E-05 06:19:06.010 1.500E-01 0.500 F -0.024 -0.152 +23° 13' 41.50" 1.000E-01 0.500 F 0.191 -0.098 19.3 V 0.70 0.27 o 691 0.37 Yes Yes
2002XY4 O C H 2007-12-15.39276 1.000E-05 07:02:31.530 1.500E-01 0.500 F -0.055 -0.863 +25° 24' 37.60" 1.000E-01 0.500 F 0.168 -0.932 o 691 2.56 Yes No
2001CP44 O C 2007-12-15.41334 1.000E-05 07:17:43.000 1.500E-01 0.500 F -0.091 -0.548 +24° 41' 32.00" 1.000E-01 0.500 F 0.187 -0.173 19.4 V 0.70 0.12 o 691 1.15 Yes Yes
2001CP44 O C 2007-12-15.43097 1.000E-05 07:17:42.070 1.500E-01 0.500 F -0.091 -0.572 +24° 41' 36.50" 1.000E-01 0.500 F 0.187 0.132 19.4 V 0.70 0.12 o 691 1.18 Yes Yes
2001CP44 O C 2007-12-15.44861 1.000E-05 07:17:41.220 1.500E-01 0.500 F -0.091 0.495 +24° 41' 40.30" 1.000E-01 0.500 F 0.187 -0.253 19.1 V 0.70 -0.18 o 691 1.11 Yes Yes
1997BR O C 2007-12-15.52913 1.000E-05 13:10:07.110 1.500E-01 0.500 F 0.228 -0.410 +02° 51' 48.60" 1.000E-01 0.500 F 0.187 -0.078 20.3 V 0.70 -0.29 o 691 0.83 Yes Yes
1997BR O C 2007-12-15.54167 1.000E-05 13:10:09.880 1.500E-01 0.500 F 0.228 -0.118 +02° 51' 40.60" 1.000E-01 0.500 F 0.187 -0.608 19.9 V 0.70 -0.69 o 691 1.24 Yes Yes
1997BR O C 2007-12-15.55423 1.000E-05 13:10:12.590 1.500E-01 0.500 F 0.228 -0.776 +02° 51' 33.60" 1.000E-01 0.500 F 0.187 -0.124 20.6 V 0.70 0.01 o 691 1.57 Yes Yes
2010TN54 O C 2007-12-16.08055 1.000E-05 03:07:37.260 1.500E-01 0.500 F -0.197 -0.206 +23° 02' 37.00" 1.000E-01 0.500 F 0.304 -0.139 21.7 V 0.70 0.01 o 691 0.50 Yes Yes
2010TN54 O C 2007-12-16.09736 1.000E-05 03:07:36.830 1.500E-01 0.500 F -0.197 -0.129 +23° 02' 31.00" 1.000E-01 0.500 F 0.304 0.483 21.8 V 0.70 0.11 o 691 1.00 Yes Yes
2010TN54 O C 2007-12-16.11761 1.000E-05 03:07:36.260 1.500E-01 0.500 F -0.197 -0.702 +23° 02' 22.50" 1.000E-01 0.500 F 0.304 -0.014 21.9 V 0.70 0.20 o 691 1.42 Yes Yes
2003YM137 O C H 2007-12-16.12821 1.000E-05 04:46:52.150 1.500E-01 0.500 F -0.218 -0.015 +22° 23' 20.80" 1.000E-01 0.500 F 0.154 0.477 20.9 V 0.70 -0.74 o 691 0.97 Yes Yes

[1-200] [201-400] [401-600] [601-800] [801-1000] [1001-1200] [1201-1400] [1401-1600] [1601-1800] [1801-2000] [2001-2200] [2201-2400] [2401-2600] [2601-2800] [2801-3000] [3001-3200] [3201-3400] [3401-3600] [3601-3800] [3801-4000] [4001-4200] [4201-4400] [4401-4600] [4601-4800] [4801-5000] [5001-5200] [5201-5400] [5401-5600] [5601-5800] [5801-6000] [6001-6200] [6201-6400] [6401-6600] [6601-6800] [6801-7000] [7001-7200] [7201-7400] [7401-7600] [7601-7800] [7801-8000] [8001-8200] [8201-8400] [8401-8600] [8601-8800] [8801-9000] [9001-9200] [9201-9400] [9401-9600] [9601-9800] [9801-10000] [10001-10200] [10201-10400] [10401-10600] [10601-10800] [10801-11000] [11001-11200] [11201-11400] [11401-11600] [11601-11800] [11801-12000] [12001-12200] [12201-12400] [12401-12600] [12601-12800] [12801-13000] [13001-13200] [13201-13400] [13401-13600] [13601-13800] [13801-14000] [14001-14200] [14201-14400] [14401-14600] [14601-14800] [14801-15000] [15001-15200] [15201-15400] [15401-15600] [15601-15800] [15801-16000] [16001-16200] [16201-16400] [16401-16600] [16601-16800] [16801-17000] [17001-17200] [17201-17400] [17401-17600] [17601-17800] [17801-18000] [18001-18200] [18201-18400] [18401-18600] [18601-18800] [18801-19000] [19001-19200] [19201-19400] [19401-19600] [19601-19800] [19801-20000] [20001-20200] [20201-20400] [20401-20600] [20601-20800] [20801-21000] [21001-21200] [21201-21400] [21401-21600] [21601-21800] [21801-22000] [22001-22200] [22201-22400] [22401-22600] [22601-22800] [22801-23000] [23001-23200] [23201-23400] [23401-23600] [23601-23800] [23801-24000] [24001-24200] [24201-24400] [24401-24600] [24601-24800] [24801-25000] [25001-25200] [25201-25400] [25401-25600] [25601-25800] [25801-26000] [26001-26200] [26201-26400] [26401-26600] [26601-26800] [26801-27000] [27001-27200] [27201-27400] [27401-27600] [27601-27800] [27801-28000] [28001-28200] [28201-28400] [28401-28600] [28601-28800] [28801-29000] [29001-29200] [29201-29400] [29401-29600] [29601-29800] [29801-30000] [30001-30200] [30201-30400] [30401-30600] [30601-30800] [30801-31000] [31001-31200] [31201-31400] [31401-31600] [31601-31800] [31801-32000] [32001-32200] [32201-32400] [32401-32600] [32601-32800] [32801-33000] [33001-33200] [33201-33400] [33401-33600] [33601-33800] [33801-34000] [34001-34200] [34201-34400] [34401-34600] [34601-34800] [34801-35000] [35001-35200] [35201-35400] [35401-35600] [35601-35800] [35801-36000] [36001-36200] [36201-36400] [36401-36600] [36601-36800] [36801-37000] [37001-37200] [37201-37400] [37401-37600] [37601-37800] [37801-38000] [38001-38200] [38201-38400] [38401-38600] [38601-38800] [38801-39000] [39001-39200] [39201-39400] [39401-39600] [39601-39800] [39801-40000] [40001-40200] [40201-40400] [40401-40600] [40601-40800] [40801-41000] [41001-41200] [41201-41400] [41401-41600] [41601-41800] [41801-42000] [42001-42200] [42201-42400] [42401-42600] [42601-42800] [42801-43000] [43001-43200] [43201-43400] [43401-43600] [43601-43800] [43801-44000] [44001-44200] [44201-44400] [44401-44600] [44601-44800] [44801-45000] [45001-45200] [45201-45400] [45401-45600] [45601-45800] [45801-46000] [46001-46200] [46201-46400] [46401-46600] [46601-46800] [46801-47000] [47001-47200] [47201-47400] [47401-47600] [47601-47800] [47801-48000] [48001-48200] [48201-48400] [48401-48600] [48601-48800] [48801-49000] [49001-49200] [49201-49400] [49401-49600] [49601-49800] [49801-50000] [50001-50200] [50201-50388]